createdAt,value
2018-04-21T00:00:43.571Z,41.25
2018-04-21T00:03:15.058Z,42.75
2018-04-21T00:05:46.377Z,41.25
2018-04-21T00:08:18.582Z,42.00
2018-04-21T00:10:50.621Z,42.75
2018-04-21T00:15:59.440Z,44.00
2018-04-21T00:18:31.200Z,44.50
2018-04-21T00:21:02.507Z,44.25
2018-04-21T00:23:35.133Z,44.75
2018-04-21T00:26:06.942Z,44.25
2018-04-21T00:28:38.483Z,44.75
2018-04-21T00:31:10.781Z,44.25
2018-04-21T00:33:43.548Z,45.50
2018-04-21T00:36:15.015Z,45.00
2018-04-21T00:38:46.613Z,45.75
2018-04-21T00:41:19.537Z,46.00
2018-04-21T00:43:50.796Z,44.00
2018-04-21T00:46:22.232Z,44.50
2018-04-21T00:48:53.504Z,43.75
2018-04-21T00:51:26.183Z,44.25
2018-04-21T00:54:07.145Z,44.50
2018-04-21T00:56:38.303Z,45.75
2018-04-21T00:59:09.876Z,44.25
2018-04-21T01:01:43.624Z,46.50
2018-04-21T01:04:15.019Z,46.00
2018-04-21T01:06:47.670Z,44.00
2018-04-21T01:09:19.534Z,45.75
2018-04-21T01:11:50.930Z,45.75
2018-04-21T01:14:24.315Z,45.00
2018-04-21T01:16:58.829Z,46.00
2018-04-21T01:19:30.542Z,44.50
2018-04-21T01:22:02.258Z,45.00
2018-04-21T01:24:36.648Z,45.00
2018-04-21T01:27:08.255Z,45.50
2018-04-21T01:29:40.287Z,46.25
2018-04-21T01:34:50.839Z,46.50
2018-04-21T01:37:22.615Z,45.00
2018-04-21T01:39:53.831Z,48.75
2018-04-21T01:42:26.393Z,50.50
2018-04-21T01:44:58.896Z,47.50
2018-04-21T01:47:31.193Z,48.25
2018-04-21T01:50:03.286Z,49.00
2018-04-21T01:52:36.315Z,48.25
2018-04-21T01:55:08.649Z,49.00
2018-04-21T01:57:42.053Z,51.50
2018-04-21T02:00:16.627Z,49.25
2018-04-21T02:02:54.566Z,48.75
2018-04-21T02:05:27.173Z,51.50
2018-04-21T02:07:59.002Z,49.00
2018-04-21T02:13:30.766Z,50.75
2018-04-21T02:16:12.950Z,47.75
2018-04-21T02:18:44.551Z,50.75
2018-04-21T02:21:15.958Z,51.00
2018-04-21T02:23:47.394Z,52.50
2018-04-21T02:26:18.709Z,52.25
2018-04-21T02:28:51.279Z,52.75
2018-04-21T02:31:22.956Z,51.50
2018-04-21T02:33:54.633Z,52.75
2018-04-21T02:36:26.024Z,51.00
2018-04-21T02:38:57.202Z,52.75
2018-04-21T02:41:28.669Z,51.00
2018-04-21T02:44:00.967Z,52.25
2018-04-21T02:46:33.019Z,50.50
2018-04-21T02:49:06.350Z,51.75
2018-04-21T02:51:38.491Z,50.75
2018-04-21T02:54:09.837Z,51.25
2018-04-21T02:56:42.079Z,52.50
2018-04-21T02:59:13.784Z,52.75
2018-04-21T03:01:45.662Z,54.50
2018-04-21T03:04:17.092Z,52.00
2018-04-21T03:06:48.707Z,54.75
2018-04-21T03:09:20.042Z,54.25
2018-04-21T03:11:54.900Z,55.50
2018-04-21T03:14:26.793Z,56.25
2018-04-21T03:16:58.569Z,54.75
2018-04-21T03:19:29.900Z,56.75
2018-04-21T03:22:01.893Z,55.00
2018-04-21T03:24:33.321Z,54.75
2018-04-21T03:27:06.293Z,56.50
2018-04-21T03:29:37.708Z,57.25
2018-04-21T03:32:09.519Z,54.00
2018-04-21T03:34:40.774Z,59.50
2018-04-21T03:37:16.853Z,57.00
2018-04-21T03:39:49.085Z,59.50
2018-04-21T03:42:20.894Z,61.50
2018-04-21T03:44:52.362Z,59.50
2018-04-21T03:47:24.264Z,59.25
2018-04-21T03:49:56.916Z,59.75
2018-04-21T03:52:29.138Z,62.50
2018-04-21T03:55:00.976Z,61.50
2018-04-21T03:57:34.080Z,61.00
2018-04-21T04:00:08.963Z,59.75
2018-04-21T04:02:40.218Z,60.00
2018-04-21T04:05:11.776Z,60.25
2018-04-21T04:07:43.092Z,60.00
2018-04-21T04:10:14.858Z,62.50
2018-04-21T04:12:46.939Z,60.75
2018-04-21T04:15:29.640Z,60.50
2018-04-21T04:19:08.311Z,63.50
2018-04-21T04:22:51.728Z,60.75
2018-04-21T04:25:23.092Z,62.00
2018-04-21T04:27:54.895Z,59.75
2018-04-21T04:30:26.746Z,62.50
2018-04-21T04:32:58.126Z,59.75
2018-04-21T04:35:35.895Z,60.75
2018-04-21T04:38:07.175Z,64.00
2018-04-21T04:40:39.020Z,62.50
2018-04-21T04:43:17.154Z,63.50
2018-04-21T04:45:49.341Z,61.50
2018-04-21T04:48:21.390Z,64.00
2018-04-21T04:50:55.224Z,64.75
2018-04-21T04:53:27.449Z,62.75
2018-04-21T04:55:59.709Z,67.00
2018-04-21T04:58:31.563Z,64.00
2018-04-21T05:01:04.261Z,60.50
2018-04-21T05:03:36.293Z,63.50
2018-04-21T05:06:07.684Z,65.50
2018-04-21T05:08:40.894Z,61.50
2018-04-21T05:11:12.488Z,61.75
2018-04-21T05:13:44.185Z,67.00
2018-04-21T05:16:15.986Z,64.50
2018-04-21T05:18:47.332Z,64.00
2018-04-21T05:21:23.417Z,65.25
2018-04-21T05:23:55.710Z,62.00
2018-04-21T05:26:27.303Z,63.25
2018-04-21T05:28:59.916Z,63.50
2018-04-21T05:31:31.747Z,62.25
2018-04-21T05:34:06.067Z,63.25
2018-04-21T05:36:38.185Z,66.00
2018-04-21T05:39:09.632Z,69.50
2018-04-21T05:41:50.509Z,65.75
2018-04-21T05:44:22.271Z,67.75
2018-04-21T05:46:55.352Z,69.75
2018-04-21T05:49:28.763Z,70.00
2018-04-21T05:52:00.362Z,70.75
2018-04-21T05:54:33.041Z,76.75
2018-04-21T05:57:05.311Z,71.00
2018-04-21T05:59:37.081Z,69.50
2018-04-21T06:02:13.772Z,74.00
2018-04-21T06:04:46.910Z,75.75
2018-04-21T06:07:18.298Z,72.00
2018-04-21T06:09:50.901Z,73.50
2018-04-21T06:12:22.088Z,75.25
2018-04-21T06:14:53.471Z,76.50
2018-04-21T06:17:25.761Z,80.25
2018-04-21T06:20:04.454Z,74.50
2018-04-21T06:22:38.930Z,80.25
2018-04-21T06:25:23.048Z,78.00
2018-04-21T06:27:55.475Z,70.75
2018-04-21T06:30:27.456Z,77.75
2018-04-21T06:32:59.879Z,76.75
2018-04-21T06:35:38.905Z,75.00
2018-04-21T06:38:10.371Z,73.75
2018-04-21T06:40:43.225Z,78.00
2018-04-21T06:43:16.601Z,70.50
2018-04-21T06:45:49.248Z,72.75
2018-04-21T06:48:20.654Z,72.00
2018-04-21T06:51:02.983Z,74.50
2018-04-21T06:53:35.609Z,73.25
2018-04-21T06:56:10.395Z,71.50
2018-04-21T06:58:54.515Z,81.50
2018-04-21T07:01:37.787Z,78.50
2018-04-21T07:04:25.998Z,73.50
2018-04-21T07:07:00.564Z,75.75
2018-04-21T07:09:32.070Z,70.50
2018-04-21T07:12:04.603Z,75.25
2018-04-21T07:14:39.058Z,75.50
2018-04-21T07:17:12.364Z,71.75
2018-04-21T07:19:46.972Z,68.50
2018-04-21T07:22:20.763Z,69.25
2018-04-21T07:24:53.461Z,67.50
2018-04-21T07:27:43.567Z,70.25
2018-04-21T07:30:26.852Z,69.00
2018-04-21T07:35:35.436Z,66.25
2018-04-21T07:38:05.874Z,69.25
2018-04-21T07:40:36.491Z,70.00
2018-04-21T07:43:08.819Z,72.00
2018-04-21T07:45:39.737Z,71.00
2018-04-21T07:48:10.310Z,68.50
2018-04-21T07:56:18.227Z,70.00
2018-04-21T07:58:49.584Z,68.75
2018-04-21T08:01:20.369Z,70.25
2018-04-21T08:03:52.239Z,65.00
2018-04-21T08:06:22.971Z,66.00
2018-04-21T08:08:53.937Z,66.25
2018-04-21T08:11:24.296Z,67.00
2018-04-21T08:13:55.884Z,67.25
2018-04-21T08:16:28.137Z,63.00
2018-04-21T08:18:58.699Z,65.50
2018-04-21T08:21:29.447Z,66.25
2018-04-21T08:23:59.972Z,67.50
2018-04-21T08:26:31.376Z,60.25
2018-04-21T08:29:01.863Z,70.25
2018-04-21T08:31:33.110Z,66.75
2018-04-21T08:34:03.448Z,65.50
2018-04-21T08:36:34.186Z,69.50
2018-04-21T08:39:06.754Z,62.50
2018-04-21T08:45:13.589Z,66.25
2018-04-21T08:47:44.130Z,65.50
2018-04-21T08:50:14.547Z,67.50
2018-04-21T08:53:10.830Z,64.00
2018-04-21T08:55:41.904Z,62.25
2018-04-21T08:58:13.124Z,62.25
2018-04-21T09:00:43.881Z,65.00
2018-04-21T09:03:14.966Z,62.00
2018-04-21T09:05:45.875Z,65.75
2018-04-21T09:08:16.211Z,64.00
2018-04-21T09:10:46.533Z,58.75
2018-04-21T09:13:19.680Z,62.00
2018-04-21T09:15:51.511Z,65.00
2018-04-21T09:18:23.078Z,62.75
2018-04-21T09:20:55.862Z,63.75
2018-04-21T09:23:26.584Z,59.50
2018-04-21T09:25:57.888Z,50.25
2018-04-21T09:28:28.503Z,57.00
2018-04-21T09:31:10.768Z,62.25
2018-04-21T09:33:52.913Z,54.75
2018-04-21T09:36:23.335Z,57.25
2018-04-21T09:38:54.888Z,51.00
2018-04-21T09:41:27.258Z,53.75
2018-04-21T09:43:57.974Z,55.00
2018-04-21T09:46:32.153Z,64.00
2018-04-21T09:49:02.637Z,58.00
2018-04-21T09:51:33.620Z,57.50
2018-04-21T09:54:04.393Z,55.00
2018-04-21T09:56:34.969Z,59.00
2018-04-21T09:59:05.522Z,57.00
2018-04-21T10:01:37.410Z,58.50
2018-04-21T10:04:13.361Z,53.50
2018-04-21T10:06:44.267Z,60.25
2018-04-21T10:09:14.557Z,47.50
2018-04-21T10:11:54.619Z,45.00
2018-04-21T10:14:34.939Z,49.75
2018-04-21T10:17:07.115Z,50.25
2018-04-21T10:19:40.342Z,51.25
2018-04-21T10:22:14.071Z,49.75
2018-04-21T10:24:45.099Z,49.50
2018-04-21T10:27:18.955Z,51.25
2018-04-21T10:29:53.190Z,50.25
2018-04-21T10:32:25.993Z,49.25
2018-04-21T10:35:01.043Z,49.25
2018-04-21T10:37:32.456Z,45.75
2018-04-21T10:40:03.307Z,44.00
2018-04-21T10:42:37.977Z,49.25
2018-04-21T10:45:19.879Z,45.00
2018-04-21T10:47:50.961Z,44.50
2018-04-21T10:50:24.337Z,46.50
2018-04-21T10:52:59.772Z,46.50
2018-04-21T10:55:36.362Z,38.50
2018-04-21T10:58:07.272Z,37.75
2018-04-21T11:00:40.017Z,38.50
2018-04-21T11:03:32.326Z,37.00
2018-04-21T11:06:05.109Z,42.25
2018-04-21T11:08:37.635Z,43.00
2018-04-21T11:11:16.113Z,42.50
2018-04-21T11:13:47.604Z,43.00
2018-04-21T11:19:28.882Z,35.00
2018-04-21T11:22:05.158Z,38.50
2018-04-21T11:24:42.590Z,44.00
2018-04-21T11:27:13.168Z,36.50
2018-04-21T11:29:44.637Z,36.50
2018-04-21T11:32:16.638Z,39.75
2018-04-21T11:34:57.454Z,41.50
2018-04-21T11:37:28.930Z,40.75
2018-04-21T11:40:14.955Z,38.50
2018-04-21T11:42:52.631Z,41.75
2018-04-21T11:45:26.345Z,43.75
2018-04-21T11:47:57.543Z,43.75
2018-04-21T11:50:32.626Z,48.50
2018-04-21T11:53:05.017Z,44.25
2018-04-21T11:55:36.244Z,44.75
2018-04-21T11:58:10.023Z,43.25
2018-04-21T12:00:44.874Z,44.75
2018-04-21T12:03:19.222Z,44.25
2018-04-21T12:05:51.768Z,45.75
2018-04-21T12:08:23.923Z,42.25
2018-04-21T12:10:55.518Z,38.00
2018-04-21T12:13:26.736Z,39.75
2018-04-21T12:15:57.879Z,40.25
2018-04-21T12:18:33.439Z,44.50
2018-04-21T12:21:06.349Z,43.75
2018-04-21T12:23:37.046Z,41.75
2018-04-21T12:26:09.123Z,43.00
2018-04-21T12:28:40.158Z,43.25
2018-04-21T12:31:11.268Z,43.50
2018-04-21T12:33:42.051Z,44.50
2018-04-21T12:36:12.835Z,46.50
2018-04-21T12:38:46.362Z,44.75
2018-04-21T12:41:18.225Z,41.00
2018-04-21T12:44:02.245Z,46.00
2018-04-21T12:46:45.575Z,43.50
2018-04-21T12:49:16.128Z,44.00
2018-04-21T12:51:51.638Z,45.25
2018-04-21T12:54:27.292Z,43.75
2018-04-21T12:56:59.652Z,45.50
2018-04-21T12:59:31.580Z,41.25
2018-04-21T13:02:05.968Z,42.75
2018-04-21T13:04:36.859Z,44.00
2018-04-21T13:07:07.408Z,40.00
2018-04-21T13:09:39.880Z,41.25
2018-04-21T13:12:10.808Z,37.25
2018-04-21T13:14:41.269Z,39.75
2018-04-21T13:17:11.684Z,42.50
2018-04-21T13:19:44.547Z,44.00
2018-04-21T13:22:16.056Z,41.75
2018-04-21T13:24:50.600Z,40.75
2018-04-21T13:27:22.317Z,38.25
2018-04-21T13:29:58.112Z,39.75
2018-04-21T13:32:29.679Z,39.50
2018-04-21T13:35:16.656Z,40.50
2018-04-21T13:37:48.659Z,41.00
2018-04-21T13:40:19.335Z,41.00
2018-04-21T13:42:55.805Z,42.25
2018-04-21T13:45:27.049Z,43.00
2018-04-21T13:47:59.303Z,42.50
2018-04-21T13:50:31.637Z,41.00
2018-04-21T13:53:02.706Z,41.00
2018-04-21T13:55:33.263Z,42.25
2018-04-21T13:58:03.818Z,39.75
2018-04-21T14:00:35.454Z,39.50
2018-04-21T14:03:08.810Z,42.00
2018-04-21T14:05:40.021Z,39.50
2018-04-21T14:08:11.068Z,40.50
2018-04-21T14:10:42.959Z,38.75
2018-04-21T14:13:14.330Z,38.25
2018-04-21T14:15:45.155Z,41.75
2018-04-21T14:18:15.727Z,40.25
2018-04-21T14:20:47.341Z,40.25
2018-04-21T14:23:20.830Z,43.00
2018-04-21T14:25:56.668Z,39.50
2018-04-21T14:28:30.019Z,40.25
2018-04-21T14:31:15.783Z,37.00
2018-04-21T14:33:57.531Z,41.25
2018-04-21T14:36:28.886Z,39.00
2018-04-21T14:39:20.688Z,38.75
2018-04-21T14:41:53.011Z,38.00
2018-04-21T14:44:27.822Z,41.75
2018-04-21T14:47:00.528Z,38.25
2018-04-21T14:49:32.958Z,39.50
2018-04-21T14:52:03.395Z,38.75
2018-04-21T14:54:34.973Z,38.75
2018-04-21T14:57:06.454Z,40.00
2018-04-21T14:59:38.078Z,39.25
2018-04-21T15:02:08.764Z,42.25
2018-04-21T15:04:40.990Z,39.75
2018-04-21T15:07:13.606Z,41.00
2018-04-21T15:09:43.884Z,43.25
2018-04-21T15:12:14.178Z,43.00
2018-04-21T15:14:48.290Z,41.00
2018-04-21T15:17:24.639Z,41.50
2018-04-21T15:19:58.179Z,42.75
2018-04-21T15:22:29.095Z,39.25
2018-04-21T15:24:59.861Z,44.00
2018-04-21T15:27:31.258Z,41.50
2018-04-21T15:30:07.077Z,43.00
2018-04-21T15:32:37.506Z,41.00
2018-04-21T15:35:08.693Z,44.25
2018-04-21T15:37:39.236Z,41.25
2018-04-21T15:40:21.950Z,44.00
2018-04-21T15:42:53.059Z,43.25
2018-04-21T15:45:23.560Z,43.00
2018-04-21T15:48:01.617Z,43.00
2018-04-21T15:50:38.803Z,42.75
2018-04-21T15:53:11.234Z,43.00
2018-04-21T15:55:41.735Z,43.25
2018-04-21T15:58:13.073Z,42.00
2018-04-21T16:00:45.375Z,41.25
2018-04-21T16:03:23.182Z,41.50
2018-04-21T16:05:53.735Z,39.25
2018-04-21T16:08:24.702Z,40.25
2018-04-21T16:10:56.078Z,40.00
2018-04-21T16:13:27.030Z,39.25
2018-04-21T16:15:59.544Z,39.75
2018-04-21T16:18:34.011Z,39.25
2018-04-21T16:23:43.203Z,37.75
2018-04-21T16:26:13.385Z,39.75
2018-04-21T16:28:43.955Z,38.00
2018-04-21T16:31:17.415Z,39.00
2018-04-21T16:33:50.975Z,38.00
2018-04-21T16:36:22.820Z,37.00
2018-04-21T16:38:55.896Z,37.75
2018-04-21T16:41:28.339Z,36.50
2018-04-21T16:43:59.271Z,38.75
2018-04-21T16:46:30.422Z,36.50
2018-04-21T16:49:17.491Z,36.75
2018-04-21T16:51:48.211Z,35.75
2018-04-21T16:54:20.737Z,36.50
2018-04-21T16:56:56.011Z,35.25
2018-04-21T16:59:32.873Z,34.75
2018-04-21T17:02:03.709Z,36.75
2018-04-21T17:04:34.443Z,38.00
2018-04-21T17:07:07.978Z,35.25
2018-04-21T17:09:38.930Z,39.50
2018-04-21T17:12:10.185Z,36.00
2018-04-21T17:14:41.019Z,36.75
2018-04-21T17:17:12.244Z,35.75
2018-04-21T17:19:44.576Z,34.25
2018-04-21T17:22:18.350Z,35.00
2018-04-21T17:24:50.049Z,32.50
2018-04-21T17:27:21.565Z,32.25
2018-04-21T17:29:52.097Z,34.25
2018-04-21T17:32:25.212Z,32.75
2018-04-21T17:34:57.614Z,32.75
2018-04-21T17:37:28.545Z,34.00
2018-04-21T17:40:00.346Z,32.25
2018-04-21T17:42:31.830Z,32.00
2018-04-21T17:45:14.778Z,32.75
2018-04-21T17:47:46.366Z,32.75
2018-04-21T17:50:18.527Z,32.75
2018-04-21T17:52:49.467Z,30.75
2018-04-21T17:55:24.723Z,32.00
2018-04-21T17:58:02.058Z,31.75
2018-04-21T18:00:32.719Z,32.75
2018-04-21T18:03:06.485Z,30.50
2018-04-21T18:05:37.547Z,31.50
2018-04-21T18:08:08.465Z,30.00
2018-04-21T18:10:39.074Z,30.00
2018-04-21T18:13:09.368Z,30.75
2018-04-21T18:15:39.959Z,32.75
2018-04-21T18:18:10.773Z,31.00
2018-04-21T18:20:52.577Z,34.00
2018-04-21T18:23:22.862Z,34.25
2018-04-21T18:25:55.025Z,32.00
2018-04-21T18:28:25.857Z,33.50
2018-04-21T18:31:03.113Z,31.50
2018-04-21T18:33:41.319Z,32.75
2018-04-21T18:36:14.788Z,32.75
2018-04-21T18:38:45.581Z,31.00
2018-04-21T18:41:16.711Z,31.75
2018-04-21T18:43:50.246Z,33.00
2018-04-21T18:46:20.918Z,34.00
2018-04-21T18:48:54.635Z,34.00
2018-04-21T18:51:26.550Z,33.25
2018-04-21T18:54:02.075Z,32.75
2018-04-21T18:56:33.321Z,32.75
2018-04-21T18:59:04.348Z,35.00
2018-04-21T19:01:35.445Z,34.00
2018-04-21T19:04:07.589Z,35.75
2018-04-21T19:06:37.910Z,33.25
2018-04-21T19:09:08.561Z,34.00
2018-04-21T19:11:39.405Z,34.00
2018-04-21T19:14:10.244Z,34.50
2018-04-21T19:16:41.136Z,35.50
2018-04-21T19:19:19.183Z,34.50
2018-04-21T19:21:50.883Z,34.75
2018-04-21T19:24:22.077Z,34.00
2018-04-21T19:26:53.369Z,33.75
2018-04-21T19:29:33.635Z,34.00
2018-04-21T19:32:04.698Z,33.75
2018-04-21T19:34:36.822Z,36.75
2018-04-21T19:37:08.987Z,34.75
2018-04-21T19:39:47.109Z,34.75
2018-04-21T19:42:19.205Z,34.75
2018-04-21T19:44:49.383Z,35.25
2018-04-21T19:47:20.240Z,34.25
2018-04-21T19:49:51.251Z,34.25
2018-04-21T19:55:22.215Z,34.25
2018-04-21T19:57:52.803Z,34.75
2018-04-21T20:00:23.187Z,34.50
2018-04-21T20:02:53.809Z,34.75
2018-04-21T20:05:24.545Z,35.25
2018-04-21T20:07:56.627Z,33.50
2018-04-21T20:10:27.456Z,34.75
2018-04-21T20:12:57.907Z,34.25
2018-04-21T20:15:29.371Z,34.75
2018-04-21T20:17:59.951Z,33.75
2018-04-21T20:20:31.903Z,36.25
2018-04-21T20:23:02.328Z,34.00
2018-04-21T20:25:34.762Z,34.50
2018-04-21T20:28:05.215Z,36.00
2018-04-21T20:30:35.718Z,33.25
2018-04-21T20:33:29.405Z,33.25
2018-04-21T20:36:19.300Z,32.75
2018-04-21T20:38:50.290Z,33.00
2018-04-21T20:41:21.577Z,32.75
2018-04-21T20:43:52.776Z,32.50
2018-04-21T20:46:24.304Z,35.00
2018-04-21T20:48:57.507Z,34.25
2018-04-21T20:51:30.111Z,35.00
2018-04-21T20:54:01.787Z,33.75
2018-04-21T20:56:36.278Z,33.50
2018-04-21T20:59:14.428Z,34.50
2018-04-21T21:01:45.794Z,32.50
2018-04-21T21:04:20.407Z,35.25
2018-04-21T21:06:52.472Z,35.00
2018-04-21T21:09:23.603Z,36.00
2018-04-21T21:11:55.231Z,35.50
2018-04-21T21:14:28.163Z,35.75
2018-04-21T21:16:59.037Z,35.25
2018-04-21T21:19:30.941Z,35.25
2018-04-21T21:22:01.388Z,38.00
2018-04-21T21:24:41.166Z,35.00
2018-04-21T21:27:12.122Z,35.50
2018-04-21T21:29:42.833Z,35.00
2018-04-21T21:32:13.715Z,36.75
2018-04-21T21:34:44.441Z,36.75
2018-04-21T21:37:16.408Z,37.75
2018-04-21T21:39:46.797Z,37.50
2018-04-21T21:42:17.490Z,36.00
2018-04-21T21:44:47.794Z,36.75
2018-04-21T21:47:19.457Z,37.25
2018-04-21T21:49:50.236Z,36.50
2018-04-21T21:52:20.744Z,36.00
2018-04-21T21:54:52.167Z,37.00
2018-04-21T21:57:24.775Z,36.25
2018-04-21T21:59:57.015Z,37.00
2018-04-21T22:02:27.326Z,35.50
2018-04-21T22:04:58.202Z,36.75
2018-04-21T22:07:32.564Z,36.00
2018-04-21T22:10:04.338Z,34.75
2018-04-21T22:12:35.745Z,34.00
2018-04-21T22:15:07.259Z,35.50
2018-04-21T22:17:38.140Z,34.25
2018-04-21T22:20:08.534Z,35.25
2018-04-21T22:22:38.927Z,36.50
2018-04-21T22:25:10.851Z,37.50
2018-04-21T22:27:42.220Z,35.75
2018-04-21T22:30:17.834Z,37.75
2018-04-21T22:32:48.228Z,37.25
2018-04-21T22:35:18.745Z,39.75
2018-04-21T22:37:48.969Z,37.75
2018-04-21T22:40:20.078Z,35.75
2018-04-21T22:43:00.445Z,38.50
2018-04-21T22:50:19.965Z,37.75
2018-04-21T22:52:51.579Z,38.75
2018-04-21T22:55:25.154Z,40.25
2018-04-21T22:57:57.621Z,39.50
2018-04-21T23:00:29.761Z,39.50
2018-04-21T23:03:00.957Z,39.75
2018-04-21T23:05:32.053Z,38.25
2018-04-21T23:08:02.647Z,37.75
2018-04-21T23:10:33.878Z,38.00
2018-04-21T23:13:04.474Z,36.25
2018-04-21T23:15:35.612Z,38.75
2018-04-21T23:18:05.993Z,38.75
2018-04-21T23:20:36.554Z,39.00
2018-04-21T23:23:06.816Z,38.50
2018-04-21T23:25:37.630Z,39.25
2018-04-21T23:28:08.504Z,39.50
2018-04-21T23:30:38.995Z,38.25
2018-04-21T23:33:09.560Z,38.75
2018-04-21T23:35:40.453Z,38.75
2018-04-21T23:38:13.318Z,35.75
2018-04-21T23:40:44.009Z,38.75
2018-04-21T23:43:23.319Z,35.75
2018-04-21T23:45:57.089Z,36.25
2018-04-21T23:48:28.458Z,37.00
2018-04-21T23:50:59.238Z,39.50
2018-04-21T23:53:32.908Z,37.50
2018-04-21T23:56:14.738Z,38.25
2018-04-21T23:58:45.226Z,37.25
